createdAt,value
2022-10-06T00:00:45.962Z,0.00
2022-10-06T00:05:45.905Z,0.00
2022-10-06T00:10:45.826Z,0.00
2022-10-06T00:15:45.808Z,0.00
2022-10-06T00:20:45.697Z,0.00
2022-10-06T00:25:45.637Z,0.00
2022-10-06T00:30:45.606Z,0.00
2022-10-06T00:35:45.518Z,0.00
2022-10-06T00:40:45.516Z,0.00
2022-10-06T00:45:45.386Z,0.00
2022-10-06T00:50:45.329Z,0.00
2022-10-06T00:55:45.257Z,0.00
2022-10-06T01:00:45.213Z,0.00
2022-10-06T01:05:45.107Z,0.00
2022-10-06T01:10:45.037Z,0.00
2022-10-06T01:15:45.168Z,0.00
2022-10-06T01:20:45.031Z,0.00
2022-10-06T01:25:44.829Z,0.00
2022-10-06T01:30:44.821Z,0.00
2022-10-06T01:35:44.719Z,0.00
2022-10-06T01:40:44.639Z,0.00
2022-10-06T01:45:44.579Z,0.00
2022-10-06T01:50:44.509Z,0.00
2022-10-06T01:55:44.440Z,0.00
2022-10-06T02:00:44.370Z,0.00
2022-10-06T02:05:44.301Z,0.00
2022-10-06T02:10:44.223Z,0.00
2022-10-06T02:15:44.209Z,0.00
2022-10-06T02:20:44.154Z,0.00
2022-10-06T02:25:44.028Z,0.00
2022-10-06T02:30:43.975Z,0.00
2022-10-06T02:35:43.901Z,0.00
2022-10-06T02:40:43.840Z,0.00
2022-10-06T02:45:43.751Z,0.00
2022-10-06T02:50:43.681Z,0.00
2022-10-06T02:55:43.615Z,0.00
2022-10-06T03:00:43.554Z,0.00
2022-10-06T03:05:43.462Z,0.00
2022-10-06T03:10:43.417Z,0.00
2022-10-06T03:15:43.384Z,0.00
2022-10-06T03:20:43.274Z,0.00
2022-10-06T03:25:43.214Z,0.00
2022-10-06T03:30:43.167Z,0.00
2022-10-06T03:35:43.079Z,0.00
2022-10-06T03:40:43.034Z,0.00
2022-10-06T03:45:42.975Z,0.00
2022-10-06T03:50:42.904Z,0.00
2022-10-06T03:55:42.805Z,0.00
2022-10-06T04:00:42.828Z,0.00
2022-10-06T04:05:42.688Z,0.00
2022-10-06T04:10:42.624Z,0.00
2022-10-06T04:15:42.537Z,0.00
2022-10-06T04:20:42.484Z,0.00
2022-10-06T04:25:42.417Z,0.00
2022-10-06T04:30:43.106Z,0.00
2022-10-06T04:35:42.277Z,0.00
2022-10-06T04:40:42.225Z,0.00
2022-10-06T04:45:42.202Z,0.00
2022-10-06T04:50:42.087Z,0.00
2022-10-06T04:55:42.038Z,0.00
2022-10-06T05:00:42.023Z,0.00
2022-10-06T05:05:41.867Z,0.00
2022-10-06T05:10:41.818Z,5.62
2022-10-06T05:15:41.736Z,11.25
2022-10-06T05:20:41.696Z,16.88
2022-10-06T05:25:41.607Z,28.12
2022-10-06T05:30:41.573Z,28.12
2022-10-06T05:35:41.469Z,39.38
2022-10-06T05:40:41.416Z,56.25
2022-10-06T05:45:41.406Z,78.75
2022-10-06T05:50:41.269Z,95.62
2022-10-06T05:55:41.188Z,118.12
2022-10-06T06:00:41.156Z,135.00
2022-10-06T06:05:41.048Z,168.75
2022-10-06T06:10:40.999Z,118.12
2022-10-06T06:15:40.931Z,129.38
2022-10-06T06:20:40.880Z,191.25
2022-10-06T06:25:40.787Z,185.62
2022-10-06T06:30:40.727Z,225.00
2022-10-06T06:35:40.659Z,258.75
2022-10-06T06:40:40.599Z,275.62
2022-10-06T06:45:40.554Z,326.25
2022-10-06T06:50:40.470Z,331.88
2022-10-06T06:55:40.401Z,326.25
2022-10-06T07:00:40.380Z,382.50
2022-10-06T07:05:40.272Z,399.38
2022-10-06T07:10:40.212Z,427.50
2022-10-06T07:15:40.282Z,472.50
2022-10-06T07:20:40.159Z,438.75
2022-10-06T07:25:40.038Z,483.75
2022-10-06T07:30:41.026Z,551.25
2022-10-06T07:35:39.894Z,551.25
2022-10-06T07:40:46.253Z,556.88
2022-10-06T07:45:40.934Z,573.75
2022-10-06T07:50:39.725Z,511.88
2022-10-06T07:55:39.659Z,315.00
2022-10-06T08:00:39.599Z,590.62
2022-10-06T08:05:39.519Z,641.25
2022-10-06T08:10:39.481Z,630.00
2022-10-06T08:15:39.465Z,708.75
2022-10-06T08:20:39.346Z,686.25
2022-10-06T08:25:39.269Z,669.38
2022-10-06T08:30:39.217Z,776.25
2022-10-06T08:35:39.148Z,843.75
2022-10-06T08:40:39.082Z,810.00
2022-10-06T08:45:39.098Z,1395.00
2022-10-06T08:50:38.948Z,888.75
2022-10-06T08:55:38.905Z,601.88
2022-10-06T09:00:38.830Z,680.62
2022-10-06T09:05:38.760Z,793.12
2022-10-06T09:10:38.702Z,663.75
2022-10-06T09:15:38.712Z,1063.12
2022-10-06T09:20:38.566Z,1141.88
2022-10-06T09:25:38.494Z,1440.00
2022-10-06T09:30:38.447Z,1209.38
2022-10-06T09:35:38.386Z,1096.88
2022-10-06T09:40:38.318Z,1181.25
2022-10-06T09:45:38.239Z,1096.88
2022-10-06T09:50:38.179Z,1462.50
2022-10-06T09:55:38.148Z,1265.62
2022-10-06T10:00:38.116Z,1434.38
2022-10-06T10:05:37.980Z,1338.75
2022-10-06T10:10:37.929Z,1524.38
2022-10-06T10:15:37.881Z,1198.12
2022-10-06T10:20:37.842Z,1276.88
2022-10-06T10:25:37.734Z,1732.50
2022-10-06T10:30:37.676Z,1158.75
2022-10-06T10:35:37.604Z,900.00
2022-10-06T10:40:37.577Z,973.12
2022-10-06T10:45:37.478Z,956.25
2022-10-06T10:50:37.419Z,798.75
2022-10-06T10:55:37.348Z,725.62
2022-10-06T11:00:37.342Z,888.75
2022-10-06T11:05:37.231Z,1333.12
2022-10-06T11:10:37.161Z,967.50
2022-10-06T11:15:37.112Z,990.00
2022-10-06T11:20:37.032Z,905.62
2022-10-06T11:25:36.974Z,995.62
2022-10-06T11:30:36.911Z,1333.12
2022-10-06T11:35:36.850Z,1378.12
2022-10-06T11:40:36.799Z,1260.00
2022-10-06T11:45:36.772Z,1597.50
2022-10-06T11:50:36.662Z,1636.88
2022-10-06T11:55:36.600Z,1501.88
2022-10-06T12:00:36.571Z,1614.38
2022-10-06T12:10:37.400Z,1164.38
2022-10-06T12:20:37.277Z,1861.88
2022-10-06T12:25:36.205Z,1119.38
2022-10-06T12:30:36.186Z,1091.25
2022-10-06T12:35:36.075Z,1811.25
2022-10-06T12:40:36.016Z,1333.12
2022-10-06T12:45:35.947Z,1040.62
2022-10-06T12:50:35.877Z,990.00
2022-10-06T12:55:35.829Z,939.38
2022-10-06T13:00:35.767Z,894.38
2022-10-06T13:05:35.689Z,905.62
2022-10-06T13:10:35.661Z,961.88
2022-10-06T13:15:35.567Z,1001.25
2022-10-06T13:20:35.519Z,793.12
2022-10-06T13:25:35.428Z,810.00
2022-10-06T13:30:38.716Z,1046.25
2022-10-06T13:35:35.308Z,967.50
2022-10-06T13:40:50.399Z,973.12
2022-10-06T13:45:36.186Z,1035.00
2022-10-06T13:50:35.097Z,866.25
2022-10-06T13:55:35.039Z,596.25
2022-10-06T14:00:34.982Z,731.25
2022-10-06T14:05:34.940Z,720.00
2022-10-06T14:10:34.853Z,691.88
2022-10-06T14:15:34.814Z,703.12
2022-10-06T14:20:34.714Z,675.00
2022-10-06T14:25:34.643Z,618.75
2022-10-06T14:30:34.584Z,601.88
2022-10-06T14:35:34.536Z,556.88
2022-10-06T14:40:34.495Z,534.38
2022-10-06T14:45:34.395Z,511.88
2022-10-06T14:50:34.331Z,495.00
2022-10-06T14:55:34.258Z,472.50
2022-10-06T15:00:34.210Z,450.00
2022-10-06T15:05:34.130Z,427.50
2022-10-06T15:10:34.071Z,405.00
2022-10-06T15:15:34.040Z,376.88
2022-10-06T15:20:33.964Z,360.00
2022-10-06T15:25:33.891Z,337.50
2022-10-06T15:30:33.817Z,292.50
2022-10-06T15:35:33.737Z,253.12
2022-10-06T15:40:33.688Z,264.38
2022-10-06T15:45:33.628Z,236.25
2022-10-06T15:50:33.550Z,213.75
2022-10-06T15:55:33.500Z,191.25
2022-10-06T16:00:33.430Z,163.12
2022-10-06T16:05:33.361Z,146.25
2022-10-06T16:10:33.302Z,123.75
2022-10-06T16:15:33.235Z,90.00
2022-10-06T16:20:33.182Z,67.50
2022-10-06T16:25:33.113Z,50.62
2022-10-06T16:30:33.048Z,33.75
2022-10-06T16:35:32.986Z,22.50
2022-10-06T16:40:32.928Z,11.25
2022-10-06T16:45:32.854Z,5.62
2022-10-06T16:50:32.796Z,0.00
2022-10-06T16:55:32.729Z,0.00
2022-10-06T17:00:32.715Z,0.00
2022-10-06T17:05:32.610Z,0.00
2022-10-06T17:10:32.548Z,0.00
2022-10-06T17:15:33.695Z,0.00
2022-10-06T17:20:32.417Z,0.00
2022-10-06T17:25:32.365Z,0.00
2022-10-06T17:30:32.290Z,0.00
2022-10-06T17:35:32.213Z,0.00
2022-10-06T17:40:32.154Z,0.00
2022-10-06T17:45:32.111Z,0.00
2022-10-06T17:50:32.046Z,0.00
2022-10-06T17:55:31.967Z,0.00
2022-10-06T18:00:31.909Z,0.00
2022-10-06T18:05:33.126Z,0.00
2022-10-06T18:10:31.788Z,0.00
2022-10-06T18:15:31.720Z,0.00
2022-10-06T18:20:31.647Z,0.00
2022-10-06T18:25:31.576Z,0.00
2022-10-06T18:30:31.520Z,0.00
2022-10-06T18:40:32.401Z,0.00
2022-10-06T18:45:35.500Z,0.00
2022-10-06T18:50:32.348Z,0.00
2022-10-06T18:55:31.252Z,0.00
2022-10-06T19:00:31.174Z,0.00
2022-10-06T19:05:31.107Z,0.00
2022-10-06T19:10:31.038Z,0.00
2022-10-06T19:15:30.943Z,0.00
2022-10-06T19:20:30.883Z,0.00
2022-10-06T19:25:30.814Z,0.00
2022-10-06T19:30:30.779Z,0.00
2022-10-06T19:35:30.684Z,0.00
2022-10-06T19:40:30.646Z,0.00
2022-10-06T19:45:30.563Z,0.00
2022-10-06T19:50:30.503Z,0.00
2022-10-06T19:55:30.467Z,0.00
2022-10-06T20:00:30.376Z,0.00
2022-10-06T20:05:30.320Z,0.00
2022-10-06T20:10:30.252Z,0.00
2022-10-06T20:15:30.187Z,0.00
2022-10-06T20:20:30.157Z,0.00
2022-10-06T20:25:30.055Z,0.00
2022-10-06T20:30:30.093Z,0.00
2022-10-06T20:35:29.938Z,0.00
2022-10-06T20:40:29.866Z,0.00
2022-10-06T20:45:29.813Z,0.00
2022-10-06T20:50:29.739Z,0.00
2022-10-06T20:55:29.683Z,0.00
2022-10-06T21:00:29.693Z,0.00
2022-10-06T21:05:29.619Z,0.00
2022-10-06T21:10:29.603Z,0.00
2022-10-06T21:15:29.529Z,0.00
2022-10-06T21:20:29.442Z,0.00
2022-10-06T21:25:29.372Z,0.00
2022-10-06T21:30:29.310Z,0.00
2022-10-06T21:35:29.251Z,0.00
2022-10-06T21:40:29.191Z,0.00
2022-10-06T21:45:32.925Z,0.00
2022-10-06T21:50:29.054Z,0.00
2022-10-06T21:55:28.975Z,0.00
2022-10-06T22:00:28.965Z,0.00
2022-10-06T22:05:28.846Z,0.00
2022-10-06T22:10:28.795Z,0.00
2022-10-06T22:15:28.734Z,0.00
2022-10-06T22:20:28.652Z,0.00
2022-10-06T22:25:28.577Z,0.00
2022-10-06T22:30:28.526Z,0.00
2022-10-06T22:35:28.497Z,0.00
2022-10-06T22:40:28.414Z,0.00
2022-10-06T22:45:28.337Z,0.00
2022-10-06T22:50:28.295Z,0.00
2022-10-06T22:55:28.184Z,0.00
2022-10-06T23:00:28.202Z,0.00
2022-10-06T23:05:28.028Z,0.00
2022-10-06T23:10:28.020Z,0.00
2022-10-06T23:15:27.959Z,0.00
2022-10-06T23:20:27.826Z,0.00
2022-10-06T23:25:27.805Z,0.00
2022-10-06T23:30:27.727Z,0.00
2022-10-06T23:35:27.608Z,0.00
2022-10-06T23:40:27.546Z,0.00
2022-10-06T23:45:27.524Z,0.00
2022-10-06T23:50:27.387Z,0.00
2022-10-06T23:55:27.344Z,0.00
